createdAt,value
2023-09-27T00:01:47.000Z,991.58
2023-09-27T00:06:41.000Z,991.55
2023-09-27T00:11:35.000Z,991.58
2023-09-27T00:16:30.000Z,991.81
2023-09-27T00:21:23.000Z,991.92
2023-09-27T00:26:15.000Z,991.85
2023-09-27T00:31:10.000Z,991.92
2023-09-27T00:36:04.000Z,991.86
2023-09-27T00:40:57.000Z,991.92
2023-09-27T00:45:52.000Z,991.65
2023-09-27T00:50:46.000Z,991.77
2023-09-27T00:55:41.000Z,991.79
2023-09-27T01:00:35.000Z,991.69
2023-09-27T01:05:28.000Z,991.56
2023-09-27T01:10:23.000Z,991.57
2023-09-27T01:15:17.000Z,991.79
2023-09-27T01:20:11.000Z,991.82
2023-09-27T01:25:05.000Z,991.73
2023-09-27T01:30:00.000Z,991.93
2023-09-27T01:34:54.000Z,991.99
2023-09-27T01:39:47.000Z,992.02
2023-09-27T01:44:41.000Z,992.26
2023-09-27T01:49:34.000Z,992.27
2023-09-27T01:54:28.000Z,992.21
2023-09-27T01:59:23.000Z,992.20
2023-09-27T02:04:17.000Z,992.09
2023-09-27T02:09:11.000Z,992.10
2023-09-27T02:14:06.000Z,992.14
2023-09-27T02:18:59.000Z,992.25
2023-09-27T02:23:53.000Z,992.38
2023-09-27T02:28:47.000Z,992.49
2023-09-27T02:33:41.000Z,992.44
2023-09-27T02:38:33.000Z,992.43
2023-09-27T02:43:28.000Z,992.42
2023-09-27T02:48:22.000Z,992.14
2023-09-27T02:53:17.000Z,992.08
2023-09-27T02:58:11.000Z,991.96
2023-09-27T03:03:05.000Z,991.93
2023-09-27T03:07:59.000Z,991.97
2023-09-27T03:12:54.000Z,992.09
2023-09-27T03:17:49.000Z,992.08
2023-09-27T03:22:43.000Z,992.12
2023-09-27T03:27:38.000Z,992.13
2023-09-27T03:32:32.000Z,992.22
2023-09-27T03:37:26.000Z,992.37
2023-09-27T03:42:18.000Z,992.41
2023-09-27T03:47:12.000Z,992.51
2023-09-27T03:52:06.000Z,992.38
2023-09-27T03:57:01.000Z,992.32
2023-09-27T04:01:53.000Z,992.38
2023-09-27T04:06:47.000Z,992.24
2023-09-27T04:11:41.000Z,992.22
2023-09-27T04:16:34.000Z,992.24
2023-09-27T04:21:28.000Z,992.20
2023-09-27T04:26:22.000Z,992.16
2023-09-27T04:31:16.000Z,992.08
2023-09-27T04:36:10.000Z,992.28
2023-09-27T04:41:04.000Z,992.42
2023-09-27T04:45:58.000Z,992.27
2023-09-27T04:50:52.000Z,992.30
2023-09-27T04:55:46.000Z,992.34
2023-09-27T05:00:40.000Z,992.24
2023-09-27T05:05:35.000Z,992.07
2023-09-27T05:10:29.000Z,992.10
2023-09-27T05:15:24.000Z,992.10
2023-09-27T05:20:19.000Z,992.07
2023-09-27T05:25:13.000Z,992.15
2023-09-27T05:30:08.000Z,992.09
2023-09-27T05:35:02.000Z,992.08
2023-09-27T05:39:55.000Z,991.99
2023-09-27T05:44:49.000Z,992.17
2023-09-27T05:49:44.000Z,992.15
2023-09-27T05:54:38.000Z,992.23
2023-09-27T05:59:33.000Z,992.24
2023-09-27T06:04:27.000Z,992.13
2023-09-27T06:09:21.000Z,991.98
2023-09-27T06:14:14.000Z,992.06
2023-09-27T06:19:09.000Z,991.99
2023-09-27T06:24:04.000Z,991.91
2023-09-27T06:28:58.000Z,991.88
2023-09-27T06:33:52.000Z,991.89
2023-09-27T06:38:46.000Z,992.02
2023-09-27T06:43:40.000Z,992.14
2023-09-27T06:48:35.000Z,992.28
2023-09-27T06:53:30.000Z,992.34
2023-09-27T06:58:24.000Z,992.30
2023-09-27T07:03:19.000Z,992.39
2023-09-27T07:08:14.000Z,992.38
2023-09-27T07:13:08.000Z,992.26
2023-09-27T07:18:03.000Z,992.35
2023-09-27T07:22:57.000Z,992.46
2023-09-27T07:27:51.000Z,992.43
2023-09-27T07:32:46.000Z,992.51
2023-09-27T07:37:40.000Z,992.40
2023-09-27T07:42:32.000Z,992.47
2023-09-27T07:47:27.000Z,992.26
2023-09-27T07:52:21.000Z,992.08
2023-09-27T07:57:16.000Z,992.08
2023-09-27T08:02:11.000Z,992.08
2023-09-27T08:07:06.000Z,992.00
2023-09-27T08:12:00.000Z,991.90
2023-09-27T08:16:55.000Z,991.99
2023-09-27T08:21:49.000Z,991.93
2023-09-27T08:26:43.000Z,991.94
2023-09-27T08:31:38.000Z,992.14
2023-09-27T08:36:33.000Z,992.20
2023-09-27T08:41:27.000Z,992.21
2023-09-27T08:46:22.000Z,992.18
2023-09-27T08:51:16.000Z,992.38
2023-09-27T08:56:11.000Z,992.45
2023-09-27T09:01:05.000Z,992.43
2023-09-27T09:06:00.000Z,992.44
2023-09-27T09:10:55.000Z,992.59
2023-09-27T09:15:50.000Z,992.61
2023-09-27T09:20:45.000Z,992.62
2023-09-27T09:25:39.000Z,992.60
2023-09-27T09:30:32.000Z,992.61
2023-09-27T09:35:26.000Z,992.58
2023-09-27T09:40:21.000Z,992.44
2023-09-27T09:45:17.000Z,992.49
2023-09-27T09:50:12.000Z,992.37
2023-09-27T09:55:06.000Z,992.34
2023-09-27T09:59:59.000Z,992.20
2023-09-27T10:04:53.000Z,992.06
2023-09-27T10:09:48.000Z,992.03
2023-09-27T10:14:42.000Z,991.98
2023-09-27T10:19:36.000Z,992.04
2023-09-27T10:24:31.000Z,991.96
2023-09-27T10:29:27.000Z,991.95
2023-09-27T10:34:23.000Z,991.90
2023-09-27T10:39:19.000Z,991.84
2023-09-27T10:44:14.000Z,991.74
2023-09-27T10:49:09.000Z,991.54
2023-09-27T10:54:03.000Z,991.51
2023-09-27T10:58:58.000Z,991.34
2023-09-27T11:03:53.000Z,991.30
2023-09-27T11:08:47.000Z,991.20
2023-09-27T11:13:41.000Z,991.12
2023-09-27T11:18:34.000Z,991.14
2023-09-27T11:23:29.000Z,990.98
2023-09-27T11:28:23.000Z,990.95
2023-09-27T11:33:18.000Z,990.82
2023-09-27T11:38:14.000Z,990.69
2023-09-27T11:43:10.000Z,990.62
2023-09-27T11:48:02.000Z,990.52
2023-09-27T11:52:57.000Z,990.45
2023-09-27T11:57:51.000Z,990.42
2023-09-27T12:02:46.000Z,990.37
2023-09-27T12:07:40.000Z,990.34
2023-09-27T12:12:35.000Z,990.25
2023-09-27T12:17:30.000Z,990.23
2023-09-27T12:22:24.000Z,990.10
2023-09-27T12:27:19.000Z,990.14
2023-09-27T12:32:14.000Z,990.06
2023-09-27T12:37:09.000Z,990.08
2023-09-27T12:42:04.000Z,989.98
2023-09-27T12:46:58.000Z,989.95
2023-09-27T12:51:52.000Z,989.94
2023-09-27T12:56:45.000Z,989.78
2023-09-27T13:01:39.000Z,989.70
2023-09-27T13:06:34.000Z,989.70
2023-09-27T13:11:29.000Z,989.78
2023-09-27T13:16:24.000Z,989.66
2023-09-27T13:21:21.000Z,989.76
2023-09-27T13:26:14.000Z,989.66
2023-09-27T13:31:09.000Z,989.66
2023-09-27T13:36:04.000Z,989.57
2023-09-27T13:40:58.000Z,989.37
2023-09-27T13:45:52.000Z,989.41
2023-09-27T13:50:45.000Z,989.34
2023-09-27T13:55:39.000Z,989.32
2023-09-27T14:00:32.000Z,989.27
2023-09-27T14:05:26.000Z,989.36
2023-09-27T14:10:20.000Z,989.25
2023-09-27T14:15:15.000Z,989.23
2023-09-27T14:20:10.000Z,989.20
2023-09-27T14:25:06.000Z,989.05
2023-09-27T14:30:00.000Z,989.00
2023-09-27T14:34:54.000Z,988.87
2023-09-27T14:39:48.000Z,988.83
2023-09-27T14:44:42.000Z,988.86
2023-09-27T14:49:36.000Z,988.77
2023-09-27T14:54:30.000Z,988.74
2023-09-27T14:59:26.000Z,988.66
2023-09-27T15:04:20.000Z,988.64
2023-09-27T15:09:14.000Z,988.65
2023-09-27T15:14:09.000Z,988.66
2023-09-27T15:19:04.000Z,988.63
2023-09-27T15:23:57.000Z,988.64
2023-09-27T15:28:52.000Z,988.68
2023-09-27T15:33:47.000Z,988.68
2023-09-27T15:38:42.000Z,988.69
2023-09-27T15:43:36.000Z,988.73
2023-09-27T15:48:30.000Z,988.62
2023-09-27T15:53:24.000Z,988.56
2023-09-27T15:58:18.000Z,988.73
2023-09-27T16:03:10.000Z,988.70
2023-09-27T16:08:04.000Z,988.71
2023-09-27T16:12:58.000Z,988.67
2023-09-27T16:17:52.000Z,988.63
2023-09-27T16:22:44.000Z,988.58
2023-09-27T16:27:38.000Z,988.62
2023-09-27T16:32:32.000Z,988.56
2023-09-27T16:37:26.000Z,988.54
2023-09-27T16:42:19.000Z,988.49
2023-09-27T16:47:12.000Z,988.47
2023-09-27T16:52:06.000Z,988.45
2023-09-27T16:57:00.000Z,988.39
2023-09-27T17:01:52.000Z,988.40
2023-09-27T17:06:46.000Z,988.39
2023-09-27T17:11:39.000Z,988.47
2023-09-27T17:16:33.000Z,988.46
2023-09-27T17:21:27.000Z,988.30
2023-09-27T17:26:21.000Z,988.34
2023-09-27T17:31:15.000Z,988.38
2023-09-27T17:36:09.000Z,988.36
2023-09-27T17:41:04.000Z,988.22
2023-09-27T17:45:58.000Z,988.24
2023-09-27T17:50:51.000Z,988.17
2023-09-27T17:55:45.000Z,988.12
2023-09-27T18:00:39.000Z,988.14
2023-09-27T18:05:33.000Z,988.17
2023-09-27T18:10:28.000Z,988.27
2023-09-27T18:15:22.000Z,988.26
2023-09-27T18:20:16.000Z,988.38
2023-09-27T18:25:11.000Z,988.31
2023-09-27T18:30:04.000Z,988.27
2023-09-27T18:34:58.000Z,988.32
2023-09-27T18:39:52.000Z,988.30
2023-09-27T18:44:47.000Z,988.30
2023-09-27T18:49:41.000Z,988.03
2023-09-27T18:54:35.000Z,988.05
2023-09-27T18:59:29.000Z,988.06
2023-09-27T19:04:24.000Z,988.02
2023-09-27T19:09:19.000Z,988.00
2023-09-27T19:14:13.000Z,987.99
2023-09-27T19:19:07.000Z,987.97
2023-09-27T19:24:02.000Z,987.97
2023-09-27T19:28:56.000Z,988.12
2023-09-27T19:33:50.000Z,988.07
2023-09-27T19:38:45.000Z,988.12
2023-09-27T19:43:39.000Z,988.19
2023-09-27T19:48:32.000Z,988.13
2023-09-27T19:53:27.000Z,988.16
2023-09-27T19:58:21.000Z,988.08
2023-09-27T20:03:15.000Z,988.05
2023-09-27T20:08:09.000Z,988.15
2023-09-27T20:13:03.000Z,988.13
2023-09-27T20:17:58.000Z,988.00
2023-09-27T20:22:52.000Z,988.01
2023-09-27T20:27:47.000Z,988.00
2023-09-27T20:32:41.000Z,988.10
2023-09-27T20:37:35.000Z,988.05
2023-09-27T20:42:29.000Z,987.95
2023-09-27T20:47:24.000Z,987.84
2023-09-27T20:52:18.000Z,987.79
2023-09-27T20:57:12.000Z,987.74
2023-09-27T21:02:07.000Z,987.79
2023-09-27T21:07:01.000Z,987.82
2023-09-27T21:11:55.000Z,987.82
2023-09-27T21:16:49.000Z,987.89
2023-09-27T21:21:43.000Z,987.98
2023-09-27T21:26:38.000Z,988.06
2023-09-27T21:31:31.000Z,988.04
2023-09-27T21:36:26.000Z,988.03
2023-09-27T21:41:20.000Z,987.91
2023-09-27T21:46:15.000Z,987.80
2023-09-27T21:51:09.000Z,987.78
2023-09-27T21:56:03.000Z,987.73
2023-09-27T22:00:58.000Z,987.80
2023-09-27T22:05:52.000Z,987.80
2023-09-27T22:10:47.000Z,987.80
2023-09-27T22:15:41.000Z,987.69
2023-09-27T22:20:35.000Z,987.67
2023-09-27T22:25:29.000Z,987.55
2023-09-27T22:30:24.000Z,987.44
2023-09-27T22:35:18.000Z,987.37
2023-09-27T22:40:13.000Z,987.31
2023-09-27T22:45:07.000Z,987.27
2023-09-27T22:50:02.000Z,987.39
2023-09-27T22:54:56.000Z,987.47
2023-09-27T22:59:51.000Z,987.40
2023-09-27T23:04:45.000Z,987.40
2023-09-27T23:09:40.000Z,987.46
2023-09-27T23:14:34.000Z,987.55
2023-09-27T23:19:28.000Z,987.47
2023-09-27T23:24:23.000Z,987.41
2023-09-27T23:29:17.000Z,987.48
2023-09-27T23:34:11.000Z,987.37
2023-09-27T23:39:06.000Z,987.29
2023-09-27T23:44:00.000Z,987.33
2023-09-27T23:48:55.000Z,987.30
2023-09-27T23:53:49.000Z,987.25
2023-09-27T23:58:43.000Z,987.32
